sensor_id;sensor_type;location;lat;lon;timestamp;pressure;altitude;pressure_sealevel;temperature;humidity
10145;BME280;5113;41.822;23.564;2022-12-29T00:00:07;-11000.88;;;2.41;100.00
10145;BME280;5113;41.822;23.564;2022-12-29T00:03:14;-11013.66;;;2.87;100.00
10145;BME280;5113;41.822;23.564;2022-12-29T00:06:21;-11012.53;;;2.83;100.00
10145;BME280;5113;41.822;23.564;2022-12-29T00:09:29;-11016.44;;;2.97;100.00
10145;BME280;5113;41.822;23.564;2022-12-29T00:12:35;-11002.84;;;2.48;100.00
10145;BME280;5113;41.822;23.564;2022-12-29T00:15:58;-11015.88;;;2.95;100.00
10145;BME280;5113;41.822;23.564;2022-12-29T00:19:05;-11017.28;;;3.00;100.00
10145;BME280;5113;41.822;23.564;2022-12-29T00:22:12;-11010.56;;;2.76;100.00
10145;BME280;5113;41.822;23.564;2022-12-29T00:25:39;-11023.19;;;3.21;100.00
10145;BME280;5113;41.822;23.564;2022-12-29T00:29:02;-11015.59;;;2.94;100.00
10145;BME280;5113;41.822;23.564;2022-12-29T00:32:26;-11020.94;;;3.13;100.00
10145;BME280;5113;41.822;23.564;2022-12-29T00:35:52;-11026.28;;;3.33;100.00
10145;BME280;5113;41.822;23.564;2022-12-29T00:39:01;-11027.94;;;3.39;100.00
10145;BME280;5113;41.822;23.564;2022-12-29T00:42:27;-11022.91;;;3.20;100.00
10145;BME280;5113;41.822;23.564;2022-12-29T00:45:50;-11015.59;;;2.94;100.00
10145;BME280;5113;41.822;23.564;2022-12-29T00:48:56;-11026.13;;;3.32;100.00
10145;BME280;5113;41.822;23.564;2022-12-29T00:52:21;-11021.50;;;3.15;100.00
10145;BME280;5113;41.822;23.564;2022-12-29T00:55:28;-11028.22;;;3.40;100.00
10145;BME280;5113;41.822;23.564;2022-12-29T00:58:35;-11031.72;;;3.52;100.00
10145;BME280;5113;41.822;23.564;2022-12-29T01:01:42;-11024.31;;;3.25;100.00
10145;BME280;5113;41.822;23.564;2022-12-29T01:04:48;-11027.25;;;3.36;100.00
10145;BME280;5113;41.822;23.564;2022-12-29T01:07:54;-11030.75;;;3.49;100.00
10145;BME280;5113;41.822;23.564;2022-12-29T01:11:03;-11025.16;;;3.28;100.00
10145;BME280;5113;41.822;23.564;2022-12-29T01:14:09;-11028.94;;;3.42;100.00
10145;BME280;5113;41.822;23.564;2022-12-29T01:17:16;-11026.28;;;3.33;100.00
10145;BME280;5113;41.822;23.564;2022-12-29T01:20:22;-11024.16;;;3.25;100.00
10145;BME280;5113;41.822;23.564;2022-12-29T01:23:29;-11011.53;;;2.79;100.00
10145;BME280;5113;41.822;23.564;2022-12-29T01:26:35;-11008.03;;;2.67;100.00
10145;BME280;5113;41.822;23.564;2022-12-29T01:29:43;-11002.84;;;2.48;100.00
10145;BME280;5113;41.822;23.564;2022-12-29T01:32:49;-11009.84;;;2.73;100.00
10145;BME280;5113;41.822;23.564;2022-12-29T01:35:59;-11001.03;;;2.41;100.00
10145;BME280;5113;41.822;23.564;2022-12-29T01:39:05;-11002.00;;;2.45;100.00
10145;BME280;5113;41.822;23.564;2022-12-29T01:42:14;-11009.72;;;2.73;100.00
10145;BME280;5113;41.822;23.564;2022-12-29T01:45:23;-11003.13;;;2.49;100.00
10145;BME280;5113;41.822;23.564;2022-12-29T01:48:30;-11006.06;;;2.59;100.00
10145;BME280;5113;41.822;23.564;2022-12-29T01:51:39;-11000.31;;;2.39;100.00
10145;BME280;5113;41.822;23.564;2022-12-29T01:54:48;-11001.72;;;2.44;100.00
10145;BME280;5113;41.822;23.564;2022-12-29T01:57:57;-10995.13;;;2.20;100.00
10145;BME280;5113;41.822;23.564;2022-12-29T02:01:07;-10994.84;;;2.19;100.00
10145;BME280;5113;41.822;23.564;2022-12-29T02:04:14;-10998.22;;;2.31;100.00
10145;BME280;5113;41.822;23.564;2022-12-29T02:07:23;-10993.19;;;2.13;100.00
10145;BME280;5113;41.822;23.564;2022-12-29T02:10:32;-10992.19;;;2.09;100.00
10145;BME280;5113;41.822;23.564;2022-12-29T02:13:40;-10993.19;;;2.13;100.00
10145;BME280;5113;41.822;23.564;2022-12-29T02:16:59;-10983.50;;;1.78;100.00
10145;BME280;5113;41.822;23.564;2022-12-29T02:20:29;-10984.91;;;1.83;100.00
10145;BME280;5113;41.822;23.564;2022-12-29T02:27:46;-10986.44;;;1.88;100.00
10145;BME280;5113;41.822;23.564;2022-12-29T02:31:03;-10983.34;;;1.77;100.00
10145;BME280;5113;41.822;23.564;2022-12-29T02:34:22;-10979.44;;;1.63;100.00
10145;BME280;5113;41.822;23.564;2022-12-29T02:37:40;-10977.06;;;1.54;100.00
10145;BME280;5113;41.822;23.564;2022-12-29T02:40:51;-10986.16;;;1.87;100.00
10145;BME280;5113;41.822;23.564;2022-12-29T02:44:04;-10980.41;;;1.67;100.00
10145;BME280;5113;41.822;23.564;2022-12-29T02:47:21;-10986.44;;;1.88;100.00
10145;BME280;5113;41.822;23.564;2022-12-29T02:50:33;-10983.50;;;1.78;100.00
10145;BME280;5113;41.822;23.564;2022-12-29T02:53:41;-10983.91;;;1.79;100.00
10145;BME280;5113;41.822;23.564;2022-12-29T02:57:29;-10981.41;;;1.70;100.00
10145;BME280;5113;41.822;23.564;2022-12-29T03:00:37;-10969.63;;;1.27;100.00
10145;BME280;5113;41.822;23.564;2022-12-29T03:04:01;-10964.44;;;1.09;100.00
10145;BME280;5113;41.822;23.564;2022-12-29T03:07:14;-10970.03;;;1.29;100.00
10145;BME280;5113;41.822;23.564;2022-12-29T03:10:35;-10968.78;;;1.24;100.00
10145;BME280;5113;41.822;23.564;2022-12-29T03:13:45;-10969.63;;;1.27;100.00
10145;BME280;5113;41.822;23.564;2022-12-29T03:17:19;-10975.94;;;1.50;100.00
10145;BME280;5113;41.822;23.564;2022-12-29T03:20:35;-10978.19;;;1.58;100.00
10145;BME280;5113;41.822;23.564;2022-12-29T03:23:44;-10975.22;;;1.48;100.00
10145;BME280;5113;41.822;23.564;2022-12-29T03:26:56;-10968.78;;;1.24;100.00
10145;BME280;5113;41.822;23.564;2022-12-29T03:30:05;-10972.16;;;1.37;100.00
10145;BME280;5113;41.822;23.564;2022-12-29T03:33:16;-10970.19;;;1.29;100.00
10145;BME280;5113;41.822;23.564;2022-12-29T03:36:32;-10971.72;;;1.35;100.00
10145;BME280;5113;41.822;23.564;2022-12-29T03:39:41;-10962.19;;;1.01;100.00
10145;BME280;5113;41.822;23.564;2022-12-29T03:42:48;-10961.78;;;0.99;100.00
10145;BME280;5113;41.822;23.564;2022-12-29T03:45:55;-10958.41;;;0.87;100.00
10145;BME280;5113;41.822;23.564;2022-12-29T03:49:01;-10961.62;;;0.98;100.00
10145;BME280;5113;41.822;23.564;2022-12-29T03:52:09;-10953.22;;;0.68;100.00
10145;BME280;5113;41.822;23.564;2022-12-29T03:55:15;-10949.72;;;0.55;100.00
10145;BME280;5113;41.822;23.564;2022-12-29T03:58:22;-10947.06;;;0.46;100.00
10145;BME280;5113;41.822;23.564;2022-12-29T04:01:28;-10951.41;;;0.61;100.00
10145;BME280;5113;41.822;23.564;2022-12-29T04:04:35;-10961.62;;;0.98;100.00
10145;BME280;5113;41.822;23.564;2022-12-29T04:07:42;-10962.34;;;1.01;100.00
10145;BME280;5113;41.822;23.564;2022-12-29T04:10:49;-10964.03;;;1.07;100.00
10145;BME280;5113;41.822;23.564;2022-12-29T04:13:55;-10953.94;;;0.71;100.00
10145;BME280;5113;41.822;23.564;2022-12-29T04:17:01;-10947.22;;;0.46;100.00
10145;BME280;5113;41.822;23.564;2022-12-29T04:20:09;-10941.47;;;0.25;100.00
10145;BME280;5113;41.822;23.564;2022-12-29T04:23:36;-10946.66;;;0.44;100.00
10145;BME280;5113;41.822;23.564;2022-12-29T04:26:42;-10956.87;;;0.81;100.00
10145;BME280;5113;41.822;23.564;2022-12-29T04:29:49;-10947.63;;;0.48;100.00
10145;BME280;5113;41.822;23.564;2022-12-29T04:32:55;-10954.06;;;0.71;100.00
10145;BME280;5113;41.822;23.564;2022-12-29T04:36:01;-10949.72;;;0.55;100.00
10145;BME280;5113;41.822;23.564;2022-12-29T04:39:09;-10944.97;;;0.38;100.00
10145;BME280;5113;41.822;23.564;2022-12-29T04:42:15;-10942.88;;;0.30;100.00
10145;BME280;5113;41.822;23.564;2022-12-29T04:45:23;-10935.84;;;0.05;100.00
10145;BME280;5113;41.822;23.564;2022-12-29T04:48:29;-10924.66;;;-0.36;100.00
10145;BME280;5113;41.822;23.564;2022-12-29T04:51:35;-10939.91;;;0.20;100.00
10145;BME280;5113;41.822;23.564;2022-12-29T04:54:42;-10943.84;;;0.34;100.00
10145;BME280;5113;41.822;23.564;2022-12-29T04:57:48;-10936.28;;;0.07;100.00
10145;BME280;5113;41.822;23.564;2022-12-29T05:00:55;-10930.97;;;-0.13;100.00
10145;BME280;5113;41.822;23.564;2022-12-29T05:04:01;-10938.94;;;0.16;100.00
10145;BME280;5113;41.822;23.564;2022-12-29T05:07:07;-10922.00;;;-0.45;100.00
10145;BME280;5113;41.822;23.564;2022-12-29T05:10:15;-10923.81;;;-0.39;100.00
10145;BME280;5113;41.822;23.564;2022-12-29T05:13:22;-10938.81;;;0.16;100.00
10145;BME280;5113;41.822;23.564;2022-12-29T05:16:28;-10935.44;;;0.04;100.00
10145;BME280;5113;41.822;23.564;2022-12-29T05:19:34;-10939.09;;;0.17;100.00
10145;BME280;5113;41.822;23.564;2022-12-29T05:22:41;-10937.97;;;0.13;100.00
10145;BME280;5113;41.822;23.564;2022-12-29T05:25:48;-10924.50;;;-0.36;100.00
10145;BME280;5113;41.822;23.564;2022-12-29T05:28:55;-10920.03;;;-0.52;100.00
10145;BME280;5113;41.822;23.564;2022-12-29T05:32:01;-10928.16;;;-0.23;100.00
10145;BME280;5113;41.822;23.564;2022-12-29T05:35:08;-10931.81;;;-0.10;100.00
10145;BME280;5113;41.822;23.564;2022-12-29T05:38:14;-10931.53;;;-0.11;100.00
10145;BME280;5113;41.822;23.564;2022-12-29T05:41:23;-10940.06;;;0.20;100.00
10145;BME280;5113;41.822;23.564;2022-12-29T05:44:29;-10944.13;;;0.35;100.00
10145;BME280;5113;41.822;23.564;2022-12-29T05:47:35;-10930.97;;;-0.13;100.00
10145;BME280;5113;41.822;23.564;2022-12-29T05:50:41;-10925.50;;;-0.32;100.00
10145;BME280;5113;41.822;23.564;2022-12-29T05:53:47;-10931.94;;;-0.09;100.00
10145;BME280;5113;41.822;23.564;2022-12-29T05:56:55;-10933.06;;;-0.05;100.00
10145;BME280;5113;41.822;23.564;2022-12-29T06:00:02;-10932.09;;;-0.09;100.00
10145;BME280;5113;41.822;23.564;2022-12-29T06:03:09;-10925.06;;;-0.34;100.00
10145;BME280;5113;41.822;23.564;2022-12-29T06:06:16;-10936.13;;;0.06;100.00
10145;BME280;5113;41.822;23.564;2022-12-29T06:09:23;-10935.03;;;0.02;100.00
10145;BME280;5113;41.822;23.564;2022-12-29T06:12:30;-10922.56;;;-0.43;100.00
10145;BME280;5113;41.822;23.564;2022-12-29T06:15:37;-10911.91;;;-0.82;100.00
10145;BME280;5113;41.822;23.564;2022-12-29T06:18:43;-10914.56;;;-0.72;100.00
10145;BME280;5113;41.822;23.564;2022-12-29T06:21:50;-10908.28;;;-0.95;100.00
10145;BME280;5113;41.822;23.564;2022-12-29T06:24:57;-10923.25;;;-0.41;100.00
10145;BME280;5113;41.822;23.564;2022-12-29T06:28:10;-10917.25;;;-0.62;100.00
10145;BME280;5113;41.822;23.564;2022-12-29T06:31:16;-10927.88;;;-0.24;100.00
10145;BME280;5113;41.822;23.564;2022-12-29T06:34:23;-10935.44;;;0.04;100.00
10145;BME280;5113;41.822;23.564;2022-12-29T06:37:29;-10933.19;;;-0.05;100.00
10145;BME280;5113;41.822;23.564;2022-12-29T06:40:35;-10936.97;;;0.09;100.00
10145;BME280;5113;41.822;23.564;2022-12-29T06:43:43;-10936.13;;;0.06;100.00
10145;BME280;5113;41.822;23.564;2022-12-29T06:46:50;-10930.53;;;-0.14;100.00
10145;BME280;5113;41.822;23.564;2022-12-29T06:49:56;-10940.34;;;0.21;100.00
10145;BME280;5113;41.822;23.564;2022-12-29T06:53:03;-10937.81;;;0.12;100.00
10145;BME280;5113;41.822;23.564;2022-12-29T06:56:09;-10936.84;;;0.09;100.00
10145;BME280;5113;41.822;23.564;2022-12-29T06:59:17;-10937.41;;;0.11;100.00
10145;BME280;5113;41.822;23.564;2022-12-29T07:02:23;-10932.09;;;-0.09;100.00
10145;BME280;5113;41.822;23.564;2022-12-29T07:05:30;-10919.63;;;-0.54;100.00
10145;BME280;5113;41.822;23.564;2022-12-29T07:08:37;-10930.97;;;-0.13;100.00
10145;BME280;5113;41.822;23.564;2022-12-29T07:11:44;-10934.31;;;-0.01;100.00
10145;BME280;5113;41.822;23.564;2022-12-29T07:14:51;-10942.88;;;0.30;100.00
10145;BME280;5113;41.822;23.564;2022-12-29T07:17:58;-10950.00;;;0.56;100.00
10145;BME280;5113;41.822;23.564;2022-12-29T07:21:04;-10957.16;;;0.82;100.00
10145;BME280;5113;41.822;23.564;2022-12-29T07:24:11;-10937.13;;;0.10;100.00
10145;BME280;5113;41.822;23.564;2022-12-29T07:27:17;-10958.84;;;0.88;100.00
10145;BME280;5113;41.822;23.564;2022-12-29T07:30:25;-10944.41;;;0.36;100.00
10145;BME280;5113;41.822;23.564;2022-12-29T07:33:32;-10962.91;;;1.03;100.00
10145;BME280;5113;41.822;23.564;2022-12-29T07:36:39;-10943.44;;;0.32;100.00
10145;BME280;5113;41.822;23.564;2022-12-29T07:39:45;-10962.63;;;1.02;100.00
10145;BME280;5113;41.822;23.564;2022-12-29T07:42:51;-10972.44;;;1.38;100.00
10145;BME280;5113;41.822;23.564;2022-12-29T07:45:59;-10971.72;;;1.35;100.00
10145;BME280;5113;41.822;23.564;2022-12-29T07:49:05;-10976.91;;;1.54;100.00
10145;BME280;5113;41.822;23.564;2022-12-29T07:52:11;-10972.28;;;1.37;100.00
10145;BME280;5113;41.822;23.564;2022-12-29T07:55:18;-10978.47;;;1.59;100.00
10145;BME280;5113;41.822;23.564;2022-12-29T07:58:24;-10983.22;;;1.77;100.00
10145;BME280;5113;41.822;23.564;2022-12-29T08:01:31;-10982.94;;;1.76;100.00
10145;BME280;5113;41.822;23.564;2022-12-29T08:04:38;-10986.03;;;1.87;100.00
10145;BME280;5113;41.822;23.564;2022-12-29T08:07:45;-10982.38;;;1.74;100.00
10145;BME280;5113;41.822;23.564;2022-12-29T08:10:52;-10987.56;;;1.92;100.00
10145;BME280;5113;41.822;23.564;2022-12-29T08:13:58;-10979.44;;;1.63;100.00
10145;BME280;5113;41.822;23.564;2022-12-29T08:17:05;-11001.03;;;2.41;100.00
10145;BME280;5113;41.822;23.564;2022-12-29T08:20:12;-11013.38;;;2.86;100.00
10145;BME280;5113;41.822;23.564;2022-12-29T08:23:18;-11024.16;;;3.25;100.00
10145;BME280;5113;41.822;23.564;2022-12-29T08:26:25;-11023.47;;;3.22;100.00
10145;BME280;5113;41.822;23.564;2022-12-29T08:29:31;-11017.56;;;3.01;100.00
10145;BME280;5113;41.822;23.564;2022-12-29T08:32:39;-11030.75;;;3.49;100.00
10145;BME280;5113;41.822;23.564;2022-12-29T08:35:46;-11026.28;;;3.33;100.00
10145;BME280;5113;41.822;23.564;2022-12-29T08:38:52;-11018.97;;;3.06;100.00
10145;BME280;5113;41.822;23.564;2022-12-29T08:41:58;-11037.50;;;3.73;100.00
10145;BME280;5113;41.822;23.564;2022-12-29T08:45:06;-11043.09;;;3.93;100.00
10145;BME280;5113;41.822;23.564;2022-12-29T08:48:15;-11053.47;;;4.31;100.00
10145;BME280;5113;41.822;23.564;2022-12-29T08:51:24;-11062.31;;;4.63;100.00
10145;BME280;5113;41.822;23.564;2022-12-29T08:54:30;-11058.53;;;4.49;100.00
10145;BME280;5113;41.822;23.564;2022-12-29T08:57:37;-11064.56;;;4.71;100.00
10145;BME280;5113;41.822;23.564;2022-12-29T09:00:43;-11076.50;;;5.14;100.00
10145;BME280;5113;41.822;23.564;2022-12-29T09:03:53;-11079.03;;;5.23;100.00
10145;BME280;5113;41.822;23.564;2022-12-29T09:07:19;-11073.41;;;5.03;100.00
10145;BME280;5113;41.822;23.564;2022-12-29T09:10:26;-11073.41;;;5.03;100.00
10145;BME280;5113;41.822;23.564;2022-12-29T09:13:32;-11079.03;;;5.23;100.00
10145;BME280;5113;41.822;23.564;2022-12-29T09:16:38;-11080.44;;;5.28;100.00
10145;BME280;5113;41.822;23.564;2022-12-29T09:19:59;-11078.03;;;5.20;100.00
10145;BME280;5113;41.822;23.564;2022-12-29T09:23:06;-11095.03;;;5.81;100.00
10145;BME280;5113;41.822;23.564;2022-12-29T09:26:12;-11098.13;;;5.92;100.00
10145;BME280;5113;41.822;23.564;2022-12-29T09:29:19;-11098.69;;;5.94;100.00
10145;BME280;5113;41.822;23.564;2022-12-29T09:32:25;-11114.00;;;6.50;100.00
10145;BME280;5113;41.822;23.564;2022-12-29T09:35:41;-11119.19;;;6.69;100.00
10145;BME280;5113;41.822;23.564;2022-12-29T09:38:48;-11114.28;;;6.51;100.00
10145;BME280;5113;41.822;23.564;2022-12-29T09:42:00;-11117.09;;;6.61;100.00
10145;BME280;5113;41.822;23.564;2022-12-29T09:45:14;-11133.94;;;7.22;100.00
10145;BME280;5113;41.822;23.564;2022-12-29T09:48:24;-11123.41;;;6.84;100.00
10145;BME280;5113;41.822;23.564;2022-12-29T09:51:35;-11134.91;;;7.25;100.00
10145;BME280;5113;41.822;23.564;2022-12-29T09:54:50;-11136.31;;;7.31;100.00
10145;BME280;5113;41.822;23.564;2022-12-29T09:58:13;-11145.03;;;7.62;100.00
10145;BME280;5113;41.822;23.564;2022-12-29T10:01:28;-11135.19;;;7.26;100.00
10145;BME280;5113;41.822;23.564;2022-12-29T10:04:36;-11145.03;;;7.62;100.00
10145;BME280;5113;41.822;23.564;2022-12-29T10:07:47;-11151.34;;;7.85;100.00
10145;BME280;5113;41.822;23.564;2022-12-29T10:10:57;-11151.91;;;7.87;100.00
10145;BME280;5113;41.822;23.564;2022-12-29T10:14:17;-11149.53;;;7.78;100.00
10145;BME280;5113;41.822;23.564;2022-12-29T10:17:33;-11155.28;;;7.99;100.00
10145;BME280;5113;41.822;23.564;2022-12-29T10:20:49;-11153.47;;;7.92;100.00
10145;BME280;5113;41.822;23.564;2022-12-29T10:24:03;-11165.56;;;8.36;100.00
10145;BME280;5113;41.822;23.564;2022-12-29T10:27:12;-11156.00;;;8.02;100.00
10145;BME280;5113;41.822;23.564;2022-12-29T10:30:20;-11148.69;;;7.75;100.00
10145;BME280;5113;41.822;23.564;2022-12-29T10:33:33;-11151.34;;;7.85;100.00
10145;BME280;5113;41.822;23.564;2022-12-29T10:36:43;-11162.75;;;8.26;100.00
10145;BME280;5113;41.822;23.564;2022-12-29T10:39:54;-11166.69;;;8.40;97.95
10145;BME280;5113;41.822;23.564;2022-12-29T10:43:07;-11177.06;;;8.78;96.38
10145;BME280;5113;41.822;23.564;2022-12-29T10:46:28;-11181.28;;;8.93;94.20
10145;BME280;5113;41.822;23.564;2022-12-29T10:49:39;-11177.50;;;8.79;93.59
10145;BME280;5113;41.822;23.564;2022-12-29T10:52:46;-11166.53;;;8.40;95.01
10145;BME280;5113;41.822;23.564;2022-12-29T10:55:55;-11181.84;;;8.95;92.50
10145;BME280;5113;41.822;23.564;2022-12-29T10:59:06;-11167.81;;;8.44;93.93
10145;BME280;5113;41.822;23.564;2022-12-29T11:02:34;-11182.00;;;8.96;95.15
10145;BME280;5113;41.822;23.564;2022-12-29T11:05:48;-11172.72;;;8.62;96.96
10145;BME280;5113;41.822;23.564;2022-12-29T11:08:58;-11179.88;;;8.88;95.78
10145;BME280;5113;41.822;23.564;2022-12-29T11:12:23;-11179.88;;;8.88;95.60
10145;BME280;5113;41.822;23.564;2022-12-29T11:15:39;-11197.19;;;9.50;93.03
10145;BME280;5113;41.822;23.564;2022-12-29T11:18:46;-11177.22;;;8.78;94.71
10145;BME280;5113;41.822;23.564;2022-12-29T11:21:53;-11189.16;;;9.21;93.61
10145;BME280;5113;41.822;23.564;2022-12-29T11:25:06;-11194.50;;;9.41;95.97
10145;BME280;5113;41.822;23.564;2022-12-29T11:28:17;-11194.50;;;9.41;94.73
10145;BME280;5113;41.822;23.564;2022-12-29T11:31:23;-11202.94;;;9.71;94.18
10145;BME280;5113;41.822;23.564;2022-12-29T11:34:31;-11189.44;;;9.22;95.69
10145;BME280;5113;41.822;23.564;2022-12-29T11:37:39;-11200.00;;;9.60;97.52
10145;BME280;5113;41.822;23.564;2022-12-29T11:40:47;-11202.53;;;9.70;93.93
10145;BME280;5113;41.822;23.564;2022-12-29T11:43:58;-11220.94;;;10.36;89.92
10145;BME280;5113;41.822;23.564;2022-12-29T11:47:08;-11220.66;;;10.35;88.70
10145;BME280;5113;41.822;23.564;2022-12-29T11:50:18;-11225.72;;;10.53;88.07
10145;BME280;5113;41.822;23.564;2022-12-29T11:53:28;-11230.22;;;10.70;88.42
10145;BME280;5113;41.822;23.564;2022-12-29T11:56:40;-11224.88;;;10.50;88.02
10145;BME280;5113;41.822;23.564;2022-12-29T11:59:51;-11228.25;;;10.63;89.56
10145;BME280;5113;41.822;23.564;2022-12-29T12:03:02;-11235.88;;;10.90;88.14
10145;BME280;5113;41.822;23.564;2022-12-29T12:06:13;-11240.34;;;11.06;86.11
10145;BME280;5113;41.822;23.564;2022-12-29T12:09:24;-11243.19;;;11.16;85.84
10145;BME280;5113;41.822;23.564;2022-12-29T12:12:35;-11249.94;;;11.41;84.77
10145;BME280;5113;41.822;23.564;2022-12-29T12:15:49;-11247.97;;;11.34;83.13
10145;BME280;5113;41.822;23.564;2022-12-29T12:19:04;-11253.03;;;11.52;82.82
10145;BME280;5113;41.822;23.564;2022-12-29T12:22:19;-11248.09;;;11.34;81.51
10145;BME280;5113;41.822;23.564;2022-12-29T12:25:31;-11244.03;;;11.19;82.77
10145;BME280;5113;41.822;23.564;2022-12-29T12:28:48;-11249.09;;;11.38;82.75
10145;BME280;5113;41.822;23.564;2022-12-29T12:32:01;-11253.16;;;11.52;81.48
10145;BME280;5113;41.822;23.564;2022-12-29T12:35:11;-11229.53;;;10.67;86.53
10145;BME280;5113;41.822;23.564;2022-12-29T12:38:33;-11237.13;;;10.95;85.06
10145;BME280;5113;41.822;23.564;2022-12-29T12:41:50;-11247.41;;;11.32;85.26
10145;BME280;5113;41.822;23.564;2022-12-29T12:45:29;-11264.00;;;11.92;81.66
10145;BME280;5113;41.822;23.564;2022-12-29T12:49:11;-11271.31;;;12.18;78.71
10145;BME280;5113;41.822;23.564;2022-12-29T12:52:29;-11274.41;;;12.29;77.68
10145;BME280;5113;41.822;23.564;2022-12-29T12:56:00;-11255.97;;;11.63;73.98
10145;BME280;5113;41.822;23.564;2022-12-29T12:59:17;-11270.34;;;12.14;74.47
10145;BME280;5113;41.822;23.564;2022-12-29T13:02:40;-11271.31;;;12.18;76.93
10145;BME280;5113;41.822;23.564;2022-12-29T13:06:07;-11280.88;;;12.52;73.52
10145;BME280;5113;41.822;23.564;2022-12-29T13:09:29;-11265.13;;;11.96;73.68
10145;BME280;5113;41.822;23.564;2022-12-29T13:12:43;-11259.50;;;11.75;75.77
10145;BME280;5113;41.822;23.564;2022-12-29T13:16:00;-11280.47;;;12.51;72.32
10145;BME280;5113;41.822;23.564;2022-12-29T13:19:22;-11269.22;;;12.10;73.57
10145;BME280;5113;41.822;23.564;2022-12-29T13:22:36;-11265.41;;;11.97;72.66
10145;BME280;5113;41.822;23.564;2022-12-29T13:25:51;-11255.97;;;11.63;74.91
10145;BME280;5113;41.822;23.564;2022-12-29T13:29:04;-11268.66;;;12.08;74.51
10145;BME280;5113;41.822;23.564;2022-12-29T13:32:30;-11271.59;;;12.19;73.45
10145;BME280;5113;41.822;23.564;2022-12-29T13:39:13;-11253.03;;;11.52;77.32
10145;BME280;5113;41.822;23.564;2022-12-29T13:42:26;-11236.16;;;10.91;79.90
10145;BME280;5113;41.822;23.564;2022-12-29T13:45:34;-11225.03;;;10.51;83.25
10145;BME280;5113;41.822;23.564;2022-12-29T13:48:45;-11207.72;;;9.88;88.28
10145;BME280;5113;41.822;23.564;2022-12-29T13:51:55;-11201.69;;;9.67;91.02
10145;BME280;5113;41.822;23.564;2022-12-29T13:55:21;-11195.63;;;9.45;92.80
10145;BME280;5113;41.822;23.564;2022-12-29T13:58:35;-11188.88;;;9.20;97.76
10145;BME280;5113;41.822;23.564;2022-12-29T14:01:50;-11171.19;;;8.56;100.00
10145;BME280;5113;41.822;23.564;2022-12-29T14:05:02;-11167.53;;;8.43;100.00
10145;BME280;5113;41.822;23.564;2022-12-29T14:08:15;-11166.53;;;8.40;100.00
10145;BME280;5113;41.822;23.564;2022-12-29T14:11:31;-11156.00;;;8.02;100.00
10145;BME280;5113;41.822;23.564;2022-12-29T14:14:38;-11156.56;;;8.04;100.00
10145;BME280;5113;41.822;23.564;2022-12-29T14:18:00;-11151.34;;;7.85;100.00
10145;BME280;5113;41.822;23.564;2022-12-29T14:21:17;-11148.41;;;7.74;100.00
10145;BME280;5113;41.822;23.564;2022-12-29T14:24:43;-11141.53;;;7.49;100.00
10145;BME280;5113;41.822;23.564;2022-12-29T14:27:55;-11136.88;;;7.33;100.00
10145;BME280;5113;41.822;23.564;2022-12-29T14:31:02;-11137.44;;;7.35;100.00
10145;BME280;5113;41.822;23.564;2022-12-29T14:34:29;-11128.47;;;7.02;100.00
10145;BME280;5113;41.822;23.564;2022-12-29T14:37:36;-11134.34;;;7.23;100.00
10145;BME280;5113;41.822;23.564;2022-12-29T14:40:44;-11134.91;;;7.25;100.00
10145;BME280;5113;41.822;23.564;2022-12-29T14:43:55;-11129.16;;;7.05;100.00
10145;BME280;5113;41.822;23.564;2022-12-29T14:47:05;-11124.38;;;6.87;100.00
10145;BME280;5113;41.822;23.564;2022-12-29T14:50:16;-11125.94;;;6.93;100.00
10145;BME280;5113;41.822;23.564;2022-12-29T14:53:44;-11124.94;;;6.89;100.00
10145;BME280;5113;41.822;23.564;2022-12-29T14:56:51;-11125.22;;;6.90;100.00
10145;BME280;5113;41.822;23.564;2022-12-29T15:00:05;-11131.13;;;7.12;100.00
10145;BME280;5113;41.822;23.564;2022-12-29T15:03:17;-11117.22;;;6.61;100.00
10145;BME280;5113;41.822;23.564;2022-12-29T15:06:25;-11118.47;;;6.66;100.00
10145;BME280;5113;41.822;23.564;2022-12-29T15:09:35;-11116.81;;;6.60;100.00
10145;BME280;5113;41.822;23.564;2022-12-29T15:12:47;-11108.78;;;6.31;100.00
10145;BME280;5113;41.822;23.564;2022-12-29T15:15:58;-11113.00;;;6.46;100.00
10145;BME280;5113;41.822;23.564;2022-12-29T15:19:21;-11115.69;;;6.56;100.00
10145;BME280;5113;41.822;23.564;2022-12-29T15:22:27;-11113.44;;;6.48;100.00
10145;BME280;5113;41.822;23.564;2022-12-29T15:25:35;-11106.56;;;6.23;100.00
10145;BME280;5113;41.822;23.564;2022-12-29T15:28:43;-11106.28;;;6.22;100.00
10145;BME280;5113;41.822;23.564;2022-12-29T15:31:51;-11109.50;;;6.34;100.00
10145;BME280;5113;41.822;23.564;2022-12-29T15:34:58;-11101.22;;;6.04;100.00
10145;BME280;5113;41.822;23.564;2022-12-29T15:38:14;-11093.63;;;5.76;100.00
10145;BME280;5113;41.822;23.564;2022-12-29T15:41:29;-11098.97;;;5.95;100.00
10145;BME280;5113;41.822;23.564;2022-12-29T15:45:03;-11091.09;;;5.67;100.00
10145;BME280;5113;41.822;23.564;2022-12-29T15:48:20;-11094.03;;;5.78;100.00
10145;BME280;5113;41.822;23.564;2022-12-29T15:51:30;-11097.28;;;5.89;100.00
10145;BME280;5113;41.822;23.564;2022-12-29T15:54:42;-11095.72;;;5.84;100.00
10145;BME280;5113;41.822;23.564;2022-12-29T15:57:48;-11088.56;;;5.58;100.00
10145;BME280;5113;41.822;23.564;2022-12-29T16:00:56;-11082.41;;;5.36;100.00
10145;BME280;5113;41.822;23.564;2022-12-29T16:04:06;-11081.28;;;5.31;100.00
10145;BME280;5113;41.822;23.564;2022-12-29T16:07:24;-11078.31;;;5.21;100.00
10145;BME280;5113;41.822;23.564;2022-12-29T16:10:36;-11073.00;;;5.02;100.00
10145;BME280;5113;41.822;23.564;2022-12-29T16:13:43;-11067.66;;;4.82;100.00
10145;BME280;5113;41.822;23.564;2022-12-29T16:16:50;-11067.09;;;4.80;100.00
10145;BME280;5113;41.822;23.564;2022-12-29T16:20:01;-11070.88;;;4.94;100.00
10145;BME280;5113;41.822;23.564;2022-12-29T16:23:18;-11064.00;;;4.69;100.00
10145;BME280;5113;41.822;23.564;2022-12-29T16:26:26;-11060.78;;;4.57;100.00
10145;BME280;5113;41.822;23.564;2022-12-29T16:29:33;-11059.66;;;4.53;100.00
10145;BME280;5113;41.822;23.564;2022-12-29T16:32:46;-11051.50;;;4.24;100.00
10145;BME280;5113;41.822;23.564;2022-12-29T16:35:54;-11052.06;;;4.26;100.00
10145;BME280;5113;41.822;23.564;2022-12-29T16:39:19;-11053.06;;;4.29;100.00
10145;BME280;5113;41.822;23.564;2022-12-29T16:42:35;-11047.44;;;4.09;100.00
10145;BME280;5113;41.822;23.564;2022-12-29T16:46:16;-11043.25;;;3.94;100.00